Alpena County Regional Airport Alpena US
ICAO: KAPN
IATA: APN
Category: Medium
Scheduled Services: Yes

Elevation: 690 ft
TransAlt. 18000 ft.

Airport Communications:
APP/DEP:128.425
ASOS:120.675
CTAF:121.35
GND:121.9
PTD:37.22
LANSING RDO:108.8
TWR:121.35
UNICOM:122.95

KAPN Zoom In..

Runways:

(A) RW 01 length 9001 ft width 150 ft
ILS 109.70 / hdg 7

(B) RW 07 length 5028 ft width 100 ft
---- / hdg 67

(C) RW 19 length 9001 ft width 150 ft
---- / hdg 187

(D) RW 25 length 5028 ft width 100 ft
---- / hdg 247

Location; KAPN
Day. 25 / Time. 09.54 Zulu
* Altimeter: 30.00
* Temperature: 04° c. 39.2°f.
* Wind from: 310° Speed 07 kn.
Dewpoint: 03° c.
Visibility: 10 Statute Miles.
Clouds: Overcast 4000 ft.
Conditions: Light Rain.

KAPN 250954Z AUTO 31007KT 10SM -RA OVC040 04/03 A3000 RMK AO2 SLP162 P0003 T00390028


Wind From 310°
Speed 07 kn.

  YouTube Music Video
 
jpsmedia.com for Web Design  worldairports.se 2018   terms of use